sensor_id;sensor_type;location;lat;lon;timestamp;temperature;humidity
19342;DHT22;9807;48.258;12.690;2022-09-17T00:00:02;11.10;99.90
19342;DHT22;9807;48.258;12.690;2022-09-17T00:02:28;11.00;99.90
19342;DHT22;9807;48.258;12.690;2022-09-17T00:04:54;10.90;99.90
19342;DHT22;9807;48.258;12.690;2022-09-17T00:07:20;10.80;99.90
19342;DHT22;9807;48.258;12.690;2022-09-17T00:09:46;10.70;99.90
19342;DHT22;9807;48.258;12.690;2022-09-17T00:12:12;10.70;99.90
19342;DHT22;9807;48.258;12.690;2022-09-17T00:14:44;10.60;99.90
19342;DHT22;9807;48.258;12.690;2022-09-17T00:17:09;10.60;99.90
19342;DHT22;9807;48.258;12.690;2022-09-17T00:19:38;10.50;99.90
19342;DHT22;9807;48.258;12.690;2022-09-17T00:22:04;10.50;99.90
19342;DHT22;9807;48.258;12.690;2022-09-17T00:24:29;10.60;99.90
19342;DHT22;9807;48.258;12.690;2022-09-17T00:26:55;10.50;99.90
19342;DHT22;9807;48.258;12.690;2022-09-17T00:29:21;10.50;99.90
19342;DHT22;9807;48.258;12.690;2022-09-17T00:31:47;10.50;99.90
19342;DHT22;9807;48.258;12.690;2022-09-17T00:34:14;10.50;99.90
19342;DHT22;9807;48.258;12.690;2022-09-17T00:36:40;10.50;99.90
19342;DHT22;9807;48.258;12.690;2022-09-17T00:39:08;10.60;99.90
19342;DHT22;9807;48.258;12.690;2022-09-17T00:41:35;10.90;99.90
19342;DHT22;9807;48.258;12.690;2022-09-17T00:47:32;11.20;99.90
19342;DHT22;9807;48.258;12.690;2022-09-17T00:50:09;10.90;99.90
19342;DHT22;9807;48.258;12.690;2022-09-17T00:52:45;10.80;99.90
19342;DHT22;9807;48.258;12.690;2022-09-17T00:57:51;10.80;99.90
19342;DHT22;9807;48.258;12.690;2022-09-17T01:00:19;10.80;99.90
19342;DHT22;9807;48.258;12.690;2022-09-17T01:02:45;10.80;99.90
19342;DHT22;9807;48.258;12.690;2022-09-17T01:05:12;11.00;99.90
19342;DHT22;9807;48.258;12.690;2022-09-17T01:13:29;12.10;99.90
19342;DHT22;9807;48.258;12.690;2022-09-17T01:16:30;12.50;99.90
19342;DHT22;9807;48.258;12.690;2022-09-17T01:22:12;12.50;99.90
19342;DHT22;9807;48.258;12.690;2022-09-17T01:24:49;12.80;99.90
19342;DHT22;9807;48.258;12.690;2022-09-17T01:40:55;14.10;99.90
19342;DHT22;9807;48.258;12.690;2022-09-17T01:46:34;14.20;99.90
19342;DHT22;9807;48.258;12.690;2022-09-17T01:49:04;14.20;99.90
19342;DHT22;9807;48.258;12.690;2022-09-17T01:51:35;13.90;99.90
19342;DHT22;9807;48.258;12.690;2022-09-17T01:54:22;13.90;99.90
19342;DHT22;9807;48.258;12.690;2022-09-17T01:57:13;14.00;99.90
19342;DHT22;9807;48.258;12.690;2022-09-17T01:59:57;14.10;99.90
19342;DHT22;9807;48.258;12.690;2022-09-17T02:02:37;14.30;99.90
19342;DHT22;9807;48.258;12.690;2022-09-17T02:05:17;14.40;99.90
19342;DHT22;9807;48.258;12.690;2022-09-17T02:07:50;14.30;99.90
19342;DHT22;9807;48.258;12.690;2022-09-17T02:10:23;14.00;99.90
19342;DHT22;9807;48.258;12.690;2022-09-17T02:12:57;13.50;99.90
19342;DHT22;9807;48.258;12.690;2022-09-17T02:15:31;13.00;99.90
19342;DHT22;9807;48.258;12.690;2022-09-17T02:18:05;12.60;99.90
19342;DHT22;9807;48.258;12.690;2022-09-17T02:20:47;12.40;99.90
19342;DHT22;9807;48.258;12.690;2022-09-17T02:23:20;12.10;99.90
19342;DHT22;9807;48.258;12.690;2022-09-17T02:25:57;11.60;99.90
19342;DHT22;9807;48.258;12.690;2022-09-17T02:28:33;11.20;99.90
19342;DHT22;9807;48.258;12.690;2022-09-17T02:31:06;10.90;99.90
19342;DHT22;9807;48.258;12.690;2022-09-17T02:33:34;10.70;99.90
19342;DHT22;9807;48.258;12.690;2022-09-17T02:36:06;10.50;99.90
19342;DHT22;9807;48.258;12.690;2022-09-17T02:38:33;10.50;99.90
19342;DHT22;9807;48.258;12.690;2022-09-17T02:41:21;10.40;99.90
19342;DHT22;9807;48.258;12.690;2022-09-17T02:44:31;10.40;99.90
19342;DHT22;9807;48.258;12.690;2022-09-17T02:52:15;10.30;99.90
19342;DHT22;9807;48.258;12.690;2022-09-17T02:54:58;10.30;99.90
19342;DHT22;9807;48.258;12.690;2022-09-17T02:57:42;10.20;99.90
19342;DHT22;9807;48.258;12.690;2022-09-17T03:00:18;10.20;99.90
19342;DHT22;9807;48.258;12.690;2022-09-17T03:05:20;10.00;99.90
19342;DHT22;9807;48.258;12.690;2022-09-17T03:07:47;10.00;99.90
19342;DHT22;9807;48.258;12.690;2022-09-17T03:10:13;10.00;99.90
19342;DHT22;9807;48.258;12.690;2022-09-17T03:12:39;10.00;99.90
19342;DHT22;9807;48.258;12.690;2022-09-17T03:15:06;10.00;99.90
19342;DHT22;9807;48.258;12.690;2022-09-17T03:17:31;10.00;99.90
19342;DHT22;9807;48.258;12.690;2022-09-17T03:19:57;10.00;99.90
19342;DHT22;9807;48.258;12.690;2022-09-17T03:22:23;10.00;99.90
19342;DHT22;9807;48.258;12.690;2022-09-17T03:24:49;10.00;99.90
19342;DHT22;9807;48.258;12.690;2022-09-17T03:27:17;9.90;99.90
19342;DHT22;9807;48.258;12.690;2022-09-17T03:29:43;9.80;99.90
19342;DHT22;9807;48.258;12.690;2022-09-17T03:32:09;9.80;99.90
19342;DHT22;9807;48.258;12.690;2022-09-17T03:34:34;9.80;99.90
19342;DHT22;9807;48.258;12.690;2022-09-17T03:37:00;9.70;99.90
19342;DHT22;9807;48.258;12.690;2022-09-17T03:39:27;9.70;99.90
19342;DHT22;9807;48.258;12.690;2022-09-17T03:41:53;9.60;99.90
19342;DHT22;9807;48.258;12.690;2022-09-17T03:44:19;9.50;99.90
19342;DHT22;9807;48.258;12.690;2022-09-17T03:46:47;9.50;99.90
19342;DHT22;9807;48.258;12.690;2022-09-17T03:49:16;9.40;99.90
19342;DHT22;9807;48.258;12.690;2022-09-17T03:51:42;9.40;99.90
19342;DHT22;9807;48.258;12.690;2022-09-17T03:54:08;9.40;99.90
19342;DHT22;9807;48.258;12.690;2022-09-17T03:56:33;9.40;99.90
19342;DHT22;9807;48.258;12.690;2022-09-17T03:58:59;9.40;99.90
19342;DHT22;9807;48.258;12.690;2022-09-17T04:01:26;9.40;99.90
19342;DHT22;9807;48.258;12.690;2022-09-17T04:03:52;9.50;99.90
19342;DHT22;9807;48.258;12.690;2022-09-17T04:06:18;9.40;99.90
19342;DHT22;9807;48.258;12.690;2022-09-17T04:08:44;9.50;99.90
19342;DHT22;9807;48.258;12.690;2022-09-17T04:11:10;9.60;99.90
19342;DHT22;9807;48.258;12.690;2022-09-17T04:13:36;9.50;99.90
19342;DHT22;9807;48.258;12.690;2022-09-17T04:16:02;9.50;99.90
19342;DHT22;9807;48.258;12.690;2022-09-17T04:18:30;9.70;99.90
19342;DHT22;9807;48.258;12.690;2022-09-17T04:20:56;10.20;99.90
19342;DHT22;9807;48.258;12.690;2022-09-17T04:23:22;10.70;99.90
19342;DHT22;9807;48.258;12.690;2022-09-17T04:25:50;11.10;99.90
19342;DHT22;9807;48.258;12.690;2022-09-17T04:28:16;11.30;99.90
19342;DHT22;9807;48.258;12.690;2022-09-17T04:30:42;11.30;99.90
19342;DHT22;9807;48.258;12.690;2022-09-17T04:33:08;11.50;99.90
19342;DHT22;9807;48.258;12.690;2022-09-17T04:35:34;11.40;99.90
19342;DHT22;9807;48.258;12.690;2022-09-17T04:38:00;11.00;99.90
19342;DHT22;9807;48.258;12.690;2022-09-17T04:40:29;10.50;99.90
19342;DHT22;9807;48.258;12.690;2022-09-17T04:42:56;10.10;99.90
19342;DHT22;9807;48.258;12.690;2022-09-17T04:47:53;9.80;99.90
19342;DHT22;9807;48.258;12.690;2022-09-17T04:50:23;9.80;99.90
19342;DHT22;9807;48.258;12.690;2022-09-17T04:52:52;9.90;99.90
19342;DHT22;9807;48.258;12.690;2022-09-17T04:55:21;9.90;99.90
19342;DHT22;9807;48.258;12.690;2022-09-17T04:57:48;10.00;99.90
19342;DHT22;9807;48.258;12.690;2022-09-17T05:00:15;10.00;99.90
19342;DHT22;9807;48.258;12.690;2022-09-17T05:02:44;9.90;99.90
19342;DHT22;9807;48.258;12.690;2022-09-17T05:05:11;9.90;99.90
19342;DHT22;9807;48.258;12.690;2022-09-17T05:07:38;9.90;99.90
19342;DHT22;9807;48.258;12.690;2022-09-17T05:10:04;9.90;99.90
19342;DHT22;9807;48.258;12.690;2022-09-17T05:12:30;9.90;99.90
19342;DHT22;9807;48.258;12.690;2022-09-17T05:14:56;10.00;99.90
19342;DHT22;9807;48.258;12.690;2022-09-17T05:17:21;10.00;99.90
19342;DHT22;9807;48.258;12.690;2022-09-17T05:19:47;10.00;99.90
19342;DHT22;9807;48.258;12.690;2022-09-17T05:22:13;10.00;99.90
19342;DHT22;9807;48.258;12.690;2022-09-17T05:24:38;10.00;99.90
19342;DHT22;9807;48.258;12.690;2022-09-17T05:27:05;10.00;99.90
19342;DHT22;9807;48.258;12.690;2022-09-17T05:29:31;10.00;99.90
19342;DHT22;9807;48.258;12.690;2022-09-17T05:31:57;10.00;99.90
19342;DHT22;9807;48.258;12.690;2022-09-17T05:34:23;9.90;99.90
19342;DHT22;9807;48.258;12.690;2022-09-17T05:36:51;9.80;99.90
19342;DHT22;9807;48.258;12.690;2022-09-17T05:39:20;9.80;99.90
19342;DHT22;9807;48.258;12.690;2022-09-17T05:41:53;9.70;99.90
19342;DHT22;9807;48.258;12.690;2022-09-17T05:44:19;9.70;99.90
19342;DHT22;9807;48.258;12.690;2022-09-17T05:46:46;9.60;99.90
19342;DHT22;9807;48.258;12.690;2022-09-17T05:49:12;9.60;99.90
19342;DHT22;9807;48.258;12.690;2022-09-17T05:51:40;9.60;99.90
19342;DHT22;9807;48.258;12.690;2022-09-17T05:54:09;9.50;99.90
19342;DHT22;9807;48.258;12.690;2022-09-17T05:56:34;9.50;99.90
19342;DHT22;9807;48.258;12.690;2022-09-17T05:59:00;9.50;99.90
19342;DHT22;9807;48.258;12.690;2022-09-17T06:01:27;9.50;99.90
19342;DHT22;9807;48.258;12.690;2022-09-17T06:03:52;9.50;99.90
19342;DHT22;9807;48.258;12.690;2022-09-17T06:06:19;9.40;99.90
19342;DHT22;9807;48.258;12.690;2022-09-17T06:08:44;9.40;99.90
19342;DHT22;9807;48.258;12.690;2022-09-17T06:11:12;9.40;99.90
19342;DHT22;9807;48.258;12.690;2022-09-17T06:13:38;9.40;99.90
19342;DHT22;9807;48.258;12.690;2022-09-17T06:16:07;9.40;99.90
19342;DHT22;9807;48.258;12.690;2022-09-17T06:18:32;9.40;99.90
19342;DHT22;9807;48.258;12.690;2022-09-17T06:21:00;9.50;99.90
19342;DHT22;9807;48.258;12.690;2022-09-17T06:23:27;9.40;99.90
19342;DHT22;9807;48.258;12.690;2022-09-17T06:25:58;9.40;99.90
19342;DHT22;9807;48.258;12.690;2022-09-17T06:28:24;9.40;99.90
19342;DHT22;9807;48.258;12.690;2022-09-17T06:30:50;9.50;99.90
19342;DHT22;9807;48.258;12.690;2022-09-17T06:33:22;9.50;99.90
19342;DHT22;9807;48.258;12.690;2022-09-17T06:35:58;9.50;99.90
19342;DHT22;9807;48.258;12.690;2022-09-17T06:38:31;9.50;99.90
19342;DHT22;9807;48.258;12.690;2022-09-17T06:40:57;9.60;99.90
19342;DHT22;9807;48.258;12.690;2022-09-17T06:43:23;9.60;99.90
19342;DHT22;9807;48.258;12.690;2022-09-17T06:45:53;9.60;99.90
19342;DHT22;9807;48.258;12.690;2022-09-17T06:48:20;9.60;99.90
19342;DHT22;9807;48.258;12.690;2022-09-17T06:50:46;9.60;99.90
19342;DHT22;9807;48.258;12.690;2022-09-17T06:53:11;9.70;99.90
19342;DHT22;9807;48.258;12.690;2022-09-17T06:55:37;9.70;99.90
19342;DHT22;9807;48.258;12.690;2022-09-17T06:58:03;9.70;99.90
19342;DHT22;9807;48.258;12.690;2022-09-17T07:00:31;9.70;99.90
19342;DHT22;9807;48.258;12.690;2022-09-17T07:02:58;9.80;99.90
19342;DHT22;9807;48.258;12.690;2022-09-17T07:05:25;9.80;99.90
19342;DHT22;9807;48.258;12.690;2022-09-17T07:07:51;9.90;99.90
19342;DHT22;9807;48.258;12.690;2022-09-17T07:10:17;9.90;99.90
19342;DHT22;9807;48.258;12.690;2022-09-17T07:12:43;9.90;99.90
19342;DHT22;9807;48.258;12.690;2022-09-17T07:15:09;10.00;99.90
19342;DHT22;9807;48.258;12.690;2022-09-17T07:17:41;10.10;99.90
19342;DHT22;9807;48.258;12.690;2022-09-17T07:20:09;10.20;99.90
19342;DHT22;9807;48.258;12.690;2022-09-17T07:22:35;10.30;99.90
19342;DHT22;9807;48.258;12.690;2022-09-17T07:25:01;10.30;99.90
19342;DHT22;9807;48.258;12.690;2022-09-17T07:27:28;10.40;99.90
19342;DHT22;9807;48.258;12.690;2022-09-17T07:29:54;10.50;99.90
19342;DHT22;9807;48.258;12.690;2022-09-17T07:32:20;10.80;99.90
19342;DHT22;9807;48.258;12.690;2022-09-17T07:34:46;10.80;99.90
19342;DHT22;9807;48.258;12.690;2022-09-17T07:37:12;10.80;99.90
19342;DHT22;9807;48.258;12.690;2022-09-17T07:39:38;10.80;99.90
19342;DHT22;9807;48.258;12.690;2022-09-17T07:42:04;10.90;99.90
19342;DHT22;9807;48.258;12.690;2022-09-17T07:44:30;10.90;99.90
19342;DHT22;9807;48.258;12.690;2022-09-17T07:46:56;11.00;99.90
19342;DHT22;9807;48.258;12.690;2022-09-17T07:49:21;11.10;99.90
19342;DHT22;9807;48.258;12.690;2022-09-17T07:51:47;11.10;99.90
19342;DHT22;9807;48.258;12.690;2022-09-17T07:54:13;11.20;99.90
19342;DHT22;9807;48.258;12.690;2022-09-17T07:56:38;11.20;99.90
19342;DHT22;9807;48.258;12.690;2022-09-17T07:59:04;11.10;99.90
19342;DHT22;9807;48.258;12.690;2022-09-17T08:01:33;11.00;99.90
19342;DHT22;9807;48.258;12.690;2022-09-17T08:03:59;11.00;99.90
19342;DHT22;9807;48.258;12.690;2022-09-17T08:06:25;11.00;99.90
19342;DHT22;9807;48.258;12.690;2022-09-17T08:08:53;11.00;99.90
19342;DHT22;9807;48.258;12.690;2022-09-17T08:11:23;11.10;99.90
19342;DHT22;9807;48.258;12.690;2022-09-17T08:13:53;11.00;99.90
19342;DHT22;9807;48.258;12.690;2022-09-17T08:16:19;11.10;99.90
19342;DHT22;9807;48.258;12.690;2022-09-17T08:18:46;11.10;99.90
19342;DHT22;9807;48.258;12.690;2022-09-17T08:21:15;11.20;99.90
19342;DHT22;9807;48.258;12.690;2022-09-17T08:23:42;11.20;99.90
19342;DHT22;9807;48.258;12.690;2022-09-17T08:26:17;11.20;99.90
19342;DHT22;9807;48.258;12.690;2022-09-17T08:28:47;11.30;99.90
19342;DHT22;9807;48.258;12.690;2022-09-17T08:31:16;11.30;99.90
19342;DHT22;9807;48.258;12.690;2022-09-17T08:33:43;11.40;99.90
19342;DHT22;9807;48.258;12.690;2022-09-17T08:36:13;11.30;99.90
19342;DHT22;9807;48.258;12.690;2022-09-17T08:38:39;11.40;99.90
19342;DHT22;9807;48.258;12.690;2022-09-17T08:46:58;11.50;99.90
19342;DHT22;9807;48.258;12.690;2022-09-17T08:49:40;11.60;99.90
19342;DHT22;9807;48.258;12.690;2022-09-17T09:00:18;11.60;99.90
19342;DHT22;9807;48.258;12.690;2022-09-17T09:05:22;11.60;99.90
19342;DHT22;9807;48.258;12.690;2022-09-17T09:07:54;11.70;99.90
19342;DHT22;9807;48.258;12.690;2022-09-17T09:10:23;11.70;99.90
19342;DHT22;9807;48.258;12.690;2022-09-17T09:12:54;11.70;99.90
19342;DHT22;9807;48.258;12.690;2022-09-17T09:15:27;11.50;99.90
19342;DHT22;9807;48.258;12.690;2022-09-17T09:18:00;11.50;99.90
19342;DHT22;9807;48.258;12.690;2022-09-17T09:20:35;11.60;99.90
19342;DHT22;9807;48.258;12.690;2022-09-17T09:23:17;11.60;99.90
19342;DHT22;9807;48.258;12.690;2022-09-17T09:33:55;11.80;99.90
19342;DHT22;9807;48.258;12.690;2022-09-17T09:36:21;11.60;99.90
19342;DHT22;9807;48.258;12.690;2022-09-17T09:41:29;11.60;99.90
19342;DHT22;9807;48.258;12.690;2022-09-17T09:44:04;11.50;99.90
19342;DHT22;9807;48.258;12.690;2022-09-17T09:46:46;11.50;99.90
19342;DHT22;9807;48.258;12.690;2022-09-17T09:55:19;11.70;99.90
19342;DHT22;9807;48.258;12.690;2022-09-17T09:58:16;11.30;99.90
19342;DHT22;9807;48.258;12.690;2022-09-17T10:00:43;11.20;99.90
19342;DHT22;9807;48.258;12.690;2022-09-17T10:03:17;11.20;99.90
19342;DHT22;9807;48.258;12.690;2022-09-17T10:08:22;11.00;99.90
19342;DHT22;9807;48.258;12.690;2022-09-17T10:11:19;11.10;99.90
19342;DHT22;9807;48.258;12.690;2022-09-17T10:13:40;11.00;99.90
19342;DHT22;9807;48.258;12.690;2022-09-17T10:18:47;11.00;99.90
19342;DHT22;9807;48.258;12.690;2022-09-17T10:21:34;10.70;99.90
19342;DHT22;9807;48.258;12.690;2022-09-17T10:24:02;10.70;99.90
19342;DHT22;9807;48.258;12.690;2022-09-17T10:26:30;10.70;99.90
19342;DHT22;9807;48.258;12.690;2022-09-17T10:29:17;10.50;99.90
19342;DHT22;9807;48.258;12.690;2022-09-17T10:31:52;10.40;99.90
19342;DHT22;9807;48.258;12.690;2022-09-17T10:34:36;10.50;99.90
19342;DHT22;9807;48.258;12.690;2022-09-17T10:37:02;10.50;99.90
19342;DHT22;9807;48.258;12.690;2022-09-17T10:39:35;10.60;99.90
19342;DHT22;9807;48.258;12.690;2022-09-17T10:42:04;10.70;99.90
19342;DHT22;9807;48.258;12.690;2022-09-17T10:44:32;10.70;99.90
19342;DHT22;9807;48.258;12.690;2022-09-17T10:47:11;10.50;99.90
19342;DHT22;9807;48.258;12.690;2022-09-17T10:49:57;10.20;99.90
19342;DHT22;9807;48.258;12.690;2022-09-17T10:52:31;9.90;99.90
19342;DHT22;9807;48.258;12.690;2022-09-17T10:57:50;9.90;99.90
19342;DHT22;9807;48.258;12.690;2022-09-17T11:00:19;9.90;99.90
19342;DHT22;9807;48.258;12.690;2022-09-17T11:06:14;10.00;99.90
19342;DHT22;9807;48.258;12.690;2022-09-17T11:09:04;9.90;99.90
19342;DHT22;9807;48.258;12.690;2022-09-17T11:19:52;9.50;99.90
19342;DHT22;9807;48.258;12.690;2022-09-17T11:28:27;9.80;99.90
19342;DHT22;9807;48.258;12.690;2022-09-17T11:37:15;10.20;99.90
19342;DHT22;9807;48.258;12.690;2022-09-17T11:40:02;10.40;99.90
19342;DHT22;9807;48.258;12.690;2022-09-17T11:42:43;10.50;99.90
19342;DHT22;9807;48.258;12.690;2022-09-17T11:48:11;10.60;99.90
19342;DHT22;9807;48.258;12.690;2022-09-17T11:50:43;10.50;99.90
19342;DHT22;9807;48.258;12.690;2022-09-17T11:56:19;10.60;99.90
19342;DHT22;9807;48.258;12.690;2022-09-17T12:13:17;10.60;99.90
19342;DHT22;9807;48.258;12.690;2022-09-17T12:15:48;10.70;99.90
19342;DHT22;9807;48.258;12.690;2022-09-17T12:18:32;10.70;99.90
19342;DHT22;9807;48.258;12.690;2022-09-17T12:21:04;10.80;99.90
19342;DHT22;9807;48.258;12.690;2022-09-17T12:23:39;10.80;99.90
19342;DHT22;9807;48.258;12.690;2022-09-17T12:28:47;10.90;99.90
19342;DHT22;9807;48.258;12.690;2022-09-17T12:31:47;10.90;99.90
19342;DHT22;9807;48.258;12.690;2022-09-17T12:37:48;11.30;99.90
19342;DHT22;9807;48.258;12.690;2022-09-17T12:40:40;11.50;99.90
19342;DHT22;9807;48.258;12.690;2022-09-17T12:52:41;11.70;99.90
19342;DHT22;9807;48.258;12.690;2022-09-17T12:54:41;11.70;99.90
19342;DHT22;9807;48.258;12.690;2022-09-17T13:00:14;11.60;99.90
19342;DHT22;9807;48.258;12.690;2022-09-17T13:08:19;11.60;99.90
19342;DHT22;9807;48.258;12.690;2022-09-17T13:11:21;11.50;99.90
19342;DHT22;9807;48.258;12.690;2022-09-17T13:17:21;11.50;99.90
19342;DHT22;9807;48.258;12.690;2022-09-17T13:20:11;11.60;99.90
19342;DHT22;9807;48.258;12.690;2022-09-17T13:22:52;11.90;99.90
19342;DHT22;9807;48.258;12.690;2022-09-17T13:25:20;12.20;99.90
19342;DHT22;9807;48.258;12.690;2022-09-17T13:27:47;12.60;99.90
19342;DHT22;9807;48.258;12.690;2022-09-17T13:30:18;12.70;99.90
19342;DHT22;9807;48.258;12.690;2022-09-17T13:32:50;12.80;99.90
19342;DHT22;9807;48.258;12.690;2022-09-17T13:40:28;12.60;99.90
19342;DHT22;9807;48.258;12.690;2022-09-17T13:45:27;12.50;99.90
19342;DHT22;9807;48.258;12.690;2022-09-17T13:48:02;12.50;99.90
19342;DHT22;9807;48.258;12.690;2022-09-17T13:55:59;12.80;99.90
19342;DHT22;9807;48.258;12.690;2022-09-17T13:58:30;12.90;99.90
19342;DHT22;9807;48.258;12.690;2022-09-17T14:01:12;12.70;99.90
19342;DHT22;9807;48.258;12.690;2022-09-17T14:19:18;11.80;99.90
19342;DHT22;9807;48.258;12.690;2022-09-17T14:35:38;12.80;99.90
19342;DHT22;9807;48.258;12.690;2022-09-17T14:43:51;13.50;99.90
19342;DHT22;9807;48.258;12.690;2022-09-17T14:46:24;13.40;99.90
19342;DHT22;9807;48.258;12.690;2022-09-17T14:48:52;13.40;99.90
19342;DHT22;9807;48.258;12.690;2022-09-17T14:53:48;13.20;99.90
19342;DHT22;9807;48.258;12.690;2022-09-17T14:56:21;13.00;99.90
19342;DHT22;9807;48.258;12.690;2022-09-17T14:58:51;12.90;99.90
19342;DHT22;9807;48.258;12.690;2022-09-17T15:01:25;12.80;99.90
19342;DHT22;9807;48.258;12.690;2022-09-17T15:04:20;12.80;99.90
19342;DHT22;9807;48.258;12.690;2022-09-17T15:06:52;13.10;99.90
19342;DHT22;9807;48.258;12.690;2022-09-17T15:09:30;13.20;99.90
19342;DHT22;9807;48.258;12.690;2022-09-17T15:11:58;13.40;99.90
19342;DHT22;9807;48.258;12.690;2022-09-17T15:14:33;13.60;99.90
19342;DHT22;9807;48.258;12.690;2022-09-17T15:17:02;13.70;99.90
19342;DHT22;9807;48.258;12.690;2022-09-17T15:19:33;13.80;99.90
19342;DHT22;9807;48.258;12.690;2022-09-17T15:22:15;14.00;99.90
19342;DHT22;9807;48.258;12.690;2022-09-17T15:25:08;14.00;99.90
19342;DHT22;9807;48.258;12.690;2022-09-17T15:27:40;14.00;99.90
19342;DHT22;9807;48.258;12.690;2022-09-17T15:30:20;14.00;99.90
19342;DHT22;9807;48.258;12.690;2022-09-17T15:32:52;13.80;99.90
19342;DHT22;9807;48.258;12.690;2022-09-17T15:35:24;13.50;99.90
19342;DHT22;9807;48.258;12.690;2022-09-17T15:37:58;13.30;99.90
19342;DHT22;9807;48.258;12.690;2022-09-17T15:40:29;13.20;99.90
19342;DHT22;9807;48.258;12.690;2022-09-17T15:45:32;12.90;99.90
19342;DHT22;9807;48.258;12.690;2022-09-17T15:50:57;12.70;99.90
19342;DHT22;9807;48.258;12.690;2022-09-17T15:53:29;12.50;99.90
19342;DHT22;9807;48.258;12.690;2022-09-17T16:08:45;10.90;99.90
19342;DHT22;9807;48.258;12.690;2022-09-17T16:11:18;10.70;99.90
19342;DHT22;9807;48.258;12.690;2022-09-17T16:13:52;10.50;99.90
19342;DHT22;9807;48.258;12.690;2022-09-17T16:16:20;10.60;99.90
19342;DHT22;9807;48.258;12.690;2022-09-17T16:18:52;10.50;99.90
19342;DHT22;9807;48.258;12.690;2022-09-17T16:21:18;10.50;99.90
19342;DHT22;9807;48.258;12.690;2022-09-17T16:23:45;10.50;99.90
19342;DHT22;9807;48.258;12.690;2022-09-17T16:26:29;10.40;99.90
19342;DHT22;9807;48.258;12.690;2022-09-17T16:28:59;10.50;99.90
19342;DHT22;9807;48.258;12.690;2022-09-17T16:31:27;10.40;99.90
19342;DHT22;9807;48.258;12.690;2022-09-17T16:33:53;10.40;99.90
19342;DHT22;9807;48.258;12.690;2022-09-17T16:36:19;10.30;99.90
19342;DHT22;9807;48.258;12.690;2022-09-17T16:38:45;10.30;99.90
19342;DHT22;9807;48.258;12.690;2022-09-17T16:41:11;10.20;99.90
19342;DHT22;9807;48.258;12.690;2022-09-17T16:43:37;10.20;99.90
19342;DHT22;9807;48.258;12.690;2022-09-17T16:46:09;10.20;99.90
19342;DHT22;9807;48.258;12.690;2022-09-17T16:48:35;10.10;99.90
19342;DHT22;9807;48.258;12.690;2022-09-17T16:51:08;10.20;99.90
19342;DHT22;9807;48.258;12.690;2022-09-17T16:53:34;10.20;99.90
19342;DHT22;9807;48.258;12.690;2022-09-17T16:56:00;10.20;99.90
19342;DHT22;9807;48.258;12.690;2022-09-17T16:58:26;10.10;99.90
19342;DHT22;9807;48.258;12.690;2022-09-17T17:00:52;10.10;99.90
19342;DHT22;9807;48.258;12.690;2022-09-17T17:03:21;10.00;99.90
19342;DHT22;9807;48.258;12.690;2022-09-17T17:05:47;10.00;99.90
19342;DHT22;9807;48.258;12.690;2022-09-17T17:08:12;10.00;99.90
19342;DHT22;9807;48.258;12.690;2022-09-17T17:10:39;9.90;99.90
19342;DHT22;9807;48.258;12.690;2022-09-17T17:13:05;9.90;99.90
19342;DHT22;9807;48.258;12.690;2022-09-17T17:15:30;9.90;99.90
19342;DHT22;9807;48.258;12.690;2022-09-17T17:17:58;9.90;99.90
19342;DHT22;9807;48.258;12.690;2022-09-17T17:20:24;9.90;99.90
19342;DHT22;9807;48.258;12.690;2022-09-17T17:22:50;9.90;99.90
19342;DHT22;9807;48.258;12.690;2022-09-17T17:25:21;9.90;99.90
19342;DHT22;9807;48.258;12.690;2022-09-17T17:27:52;9.90;99.90
19342;DHT22;9807;48.258;12.690;2022-09-17T17:30:17;9.90;99.90
19342;DHT22;9807;48.258;12.690;2022-09-17T17:32:47;9.90;99.90
19342;DHT22;9807;48.258;12.690;2022-09-17T17:35:15;9.80;99.90
19342;DHT22;9807;48.258;12.690;2022-09-17T17:37:41;9.80;99.90
19342;DHT22;9807;48.258;12.690;2022-09-17T17:40:07;9.80;99.90
19342;DHT22;9807;48.258;12.690;2022-09-17T17:42:35;9.80;99.90
19342;DHT22;9807;48.258;12.690;2022-09-17T17:45:04;9.70;99.90
19342;DHT22;9807;48.258;12.690;2022-09-17T17:47:30;9.70;99.90
19342;DHT22;9807;48.258;12.690;2022-09-17T17:49:56;9.70;99.90
19342;DHT22;9807;48.258;12.690;2022-09-17T17:52:22;9.70;99.90
19342;DHT22;9807;48.258;12.690;2022-09-17T17:54:51;9.70;99.90
19342;DHT22;9807;48.258;12.690;2022-09-17T17:57:23;9.70;99.90
19342;DHT22;9807;48.258;12.690;2022-09-17T17:59:52;9.70;99.90
19342;DHT22;9807;48.258;12.690;2022-09-17T18:02:18;9.80;99.90
19342;DHT22;9807;48.258;12.690;2022-09-17T18:04:44;9.70;99.90
19342;DHT22;9807;48.258;12.690;2022-09-17T18:07:09;9.70;99.90
19342;DHT22;9807;48.258;12.690;2022-09-17T18:09:35;9.60;99.90
19342;DHT22;9807;48.258;12.690;2022-09-17T18:12:01;9.70;99.90
19342;DHT22;9807;48.258;12.690;2022-09-17T18:14:28;9.80;99.90
19342;DHT22;9807;48.258;12.690;2022-09-17T18:16:53;9.90;99.90
19342;DHT22;9807;48.258;12.690;2022-09-17T18:19:19;10.20;99.90
19342;DHT22;9807;48.258;12.690;2022-09-17T18:21:44;10.40;99.90
19342;DHT22;9807;48.258;12.690;2022-09-17T18:24:13;10.40;99.90
19342;DHT22;9807;48.258;12.690;2022-09-17T18:26:39;10.10;99.90
19342;DHT22;9807;48.258;12.690;2022-09-17T18:29:05;9.90;99.90
19342;DHT22;9807;48.258;12.690;2022-09-17T18:31:32;9.70;99.90
19342;DHT22;9807;48.258;12.690;2022-09-17T18:34:08;9.60;99.90
19342;DHT22;9807;48.258;12.690;2022-09-17T18:36:35;9.50;99.90
19342;DHT22;9807;48.258;12.690;2022-09-17T18:39:04;9.50;99.90
19342;DHT22;9807;48.258;12.690;2022-09-17T18:41:32;9.40;99.90
19342;DHT22;9807;48.258;12.690;2022-09-17T18:43:58;9.40;99.90
19342;DHT22;9807;48.258;12.690;2022-09-17T18:46:25;9.40;99.90
19342;DHT22;9807;48.258;12.690;2022-09-17T18:48:55;9.50;99.90
19342;DHT22;9807;48.258;12.690;2022-09-17T18:51:26;9.40;99.90
19342;DHT22;9807;48.258;12.690;2022-09-17T18:53:56;9.40;99.90
19342;DHT22;9807;48.258;12.690;2022-09-17T18:56:29;9.40;99.90
19342;DHT22;9807;48.258;12.690;2022-09-17T18:58:56;9.50;99.90
19342;DHT22;9807;48.258;12.690;2022-09-17T19:01:28;9.50;99.90
19342;DHT22;9807;48.258;12.690;2022-09-17T19:03:55;9.40;99.90
19342;DHT22;9807;48.258;12.690;2022-09-17T19:06:22;9.40;99.90
19342;DHT22;9807;48.258;12.690;2022-09-17T19:08:51;9.40;99.90
19342;DHT22;9807;48.258;12.690;2022-09-17T19:11:19;9.40;99.90
19342;DHT22;9807;48.258;12.690;2022-09-17T19:13:46;9.40;99.90
19342;DHT22;9807;48.258;12.690;2022-09-17T19:16:21;9.50;99.90
19342;DHT22;9807;48.258;12.690;2022-09-17T19:18:47;9.40;99.90
19342;DHT22;9807;48.258;12.690;2022-09-17T19:21:17;9.50;99.90
19342;DHT22;9807;48.258;12.690;2022-09-17T19:23:49;9.50;99.90
19342;DHT22;9807;48.258;12.690;2022-09-17T19:26:23;9.50;99.90
19342;DHT22;9807;48.258;12.690;2022-09-17T19:28:57;9.50;99.90
19342;DHT22;9807;48.258;12.690;2022-09-17T19:31:25;9.60;99.90
19342;DHT22;9807;48.258;12.690;2022-09-17T19:33:51;9.70;99.90
19342;DHT22;9807;48.258;12.690;2022-09-17T19:36:18;9.70;99.90